Time;durP1;ratioP1;P1;durP2;ratioP2;P2;SDS_P1;SDS_P2;PMS_P1;PMS_P2;Temp;Humidity;BMP_temperature;BMP_pressure;BME280_temperature;BME280_humidity;BME280_pressure;Samples;Min_cycle;Max_cycle;Signal;HPM_P1;HPM_P2
2021/07/23 00:01:10;;;;;;;7.60;6.33;;;15.90;99.90;;;;;;5013036;28;20210;-64
2021/07/23 00:03:37;;;;;;;8.67;6.93;;;15.80;99.90;;;;;;5013123;28;20237;-65
2021/07/23 00:06:04;;;;;;;7.47;6.57;;;15.80;99.90;;;;;;5013335;28;20207;-65
2021/07/23 00:08:31;;;;;;;9.77;6.93;;;15.70;99.90;;;;;;5013022;28;20649;-65
2021/07/23 00:10:57;;;;;;;8.50;6.43;;;15.70;99.90;;;;;;5013163;28;20211;-65
2021/07/23 00:13:25;;;;;;;9.93;6.93;;;15.60;99.90;;;;;;5012845;28;20223;-64
2021/07/23 00:15:52;;;;;;;7.83;6.53;;;15.60;99.90;;;;;;5013082;28;20265;-63
2021/07/23 00:18:18;;;;;;;9.03;6.60;;;15.60;99.90;;;;;;5012990;28;20639;-64
2021/07/23 00:20:45;;;;;;;7.90;6.47;;;15.60;99.90;;;;;;5012400;28;20210;-64
2021/07/23 00:23:12;;;;;;;8.57;7.00;;;15.50;99.90;;;;;;5012928;28;20242;-65
2021/07/23 00:25:39;;;;;;;9.20;7.00;;;15.50;99.90;;;;;;5012606;28;20854;-65
2021/07/23 00:28:05;;;;;;;7.73;6.47;;;15.40;99.90;;;;;;5012690;28;20277;-64
2021/07/23 00:30:34;;;;;;;10.17;7.00;;;15.40;99.90;;;;;;5012485;28;20894;-64
2021/07/23 00:33:01;;;;;;;8.20;6.23;;;15.40;99.90;;;;;;5012865;28;20223;-64
2021/07/23 00:35:28;;;;;;;10.97;6.87;;;15.40;99.90;;;;;;5012532;28;20299;-64
2021/07/23 00:37:55;;;;;;;9.93;7.27;;;15.30;99.90;;;;;;5012679;28;20237;-64
2021/07/23 00:40:22;;;;;;;13.13;6.83;;;15.30;99.90;;;;;;5012526;28;20217;-64
2021/07/23 00:42:49;;;;;;;9.23;6.53;;;15.30;99.90;;;;;;5012427;28;20203;-64
2021/07/23 00:45:16;;;;;;;9.60;6.53;;;15.20;99.90;;;;;;5012401;28;20207;-64
2021/07/23 00:47:48;;;;;;;11.90;7.00;;;15.20;99.90;;;;;;5012594;28;20230;-65
2021/07/23 00:50:15;;;;;;;9.27;7.00;;;15.20;99.90;;;;;;5012431;28;20245;-64
2021/07/23 00:52:42;;;;;;;12.33;6.90;;;15.20;99.90;;;;;;5012475;28;20226;-65
2021/07/23 00:55:11;;;;;;;8.30;6.90;;;15.20;99.90;;;;;;5012147;28;20211;-65
2021/07/23 00:57:40;;;;;;;8.93;7.10;;;15.10;99.90;;;;;;5012391;28;20738;-65
2021/07/23 01:00:07;;;;;;;11.10;7.60;;;15.10;99.90;;;;;;5012418;28;20635;-65
2021/07/23 01:02:34;;;;;;;13.30;6.97;;;15.00;99.90;;;;;;5012328;28;20330;-65
2021/07/23 01:05:02;;;;;;;9.07;7.40;;;15.00;99.90;;;;;;5012233;28;20256;-65
2021/07/23 01:07:29;;;;;;;11.87;7.20;;;15.00;99.90;;;;;;5012180;28;20293;-65
2021/07/23 01:09:55;;;;;;;9.33;7.27;;;14.90;99.90;;;;;;5012458;28;20214;-64
2021/07/23 01:12:22;;;;;;;9.77;6.47;;;14.90;99.90;;;;;;5012134;28;20639;-64
2021/07/23 01:14:49;;;;;;;10.23;7.40;;;14.90;99.90;;;;;;5012292;28;20209;-65
2021/07/23 01:17:16;;;;;;;13.20;6.87;;;14.90;99.90;;;;;;5012459;28;20265;-64
2021/07/23 01:19:50;;;;;;;11.90;7.60;;;14.90;99.90;;;;;;5012039;28;20793;-65
2021/07/23 01:22:20;;;;;;;9.50;6.73;;;14.90;99.90;;;;;;5011961;28;20241;-64
2021/07/23 01:24:49;;;;;;;11.40;7.00;;;14.80;99.90;;;;;;5012329;28;20612;-65
2021/07/23 01:27:16;;;;;;;10.60;7.40;;;14.80;99.90;;;;;;5012176;28;20261;-65
2021/07/23 01:29:43;;;;;;;8.37;6.90;;;14.70;99.90;;;;;;5012081;28;20226;-65
2021/07/23 01:32:09;;;;;;;9.70;7.23;;;14.70;99.90;;;;;;5014121;28;20268;-65
2021/07/23 01:34:36;;;;;;;8.30;7.10;;;14.70;99.90;;;;;;5016103;28;20230;-65
2021/07/23 01:37:03;;;;;;;12.10;7.63;;;14.60;99.90;;;;;;5015796;28;20210;-64
2021/07/23 01:39:32;;;;;;;9.93;6.97;;;14.70;99.90;;;;;;5015927;28;20227;-64
2021/07/23 01:42:00;;;;;;;12.00;7.63;;;14.60;99.90;;;;;;5016072;28;20211;-65
2021/07/23 01:44:27;;;;;;;11.13;7.27;;;14.50;99.90;;;;;;5015722;28;20698;-65
2021/07/23 01:46:54;;;;;;;11.43;7.27;;;14.50;99.90;;;;;;5015871;28;20802;-65
2021/07/23 01:49:20;;;;;;;11.67;7.30;;;14.50;99.90;;;;;;5015674;28;20235;-64
2021/07/23 01:51:47;;;;;;;12.60;7.97;;;14.50;1.00;;;;;;5015728;28;20284;-65
2021/07/23 01:54:13;;;;;;;10.73;8.30;;;14.40;1.00;;;;;;5015664;28;20280;-65
2021/07/23 01:56:41;;;;;;;10.00;7.70;;;14.40;1.00;;;;;;5016018;28;20263;-65
2021/07/23 01:59:09;;;;;;;11.30;9.00;;;14.40;1.00;;;;;;5015723;28;20631;-65
2021/07/23 02:01:35;;;;;;;11.23;7.93;;;14.30;1.00;;;;;;5015512;28;20211;-65
2021/07/23 02:04:02;;;;;;;10.37;8.03;;;14.40;1.00;;;;;;5015625;28;20276;-65
2021/07/23 02:06:29;;;;;;;9.87;8.10;;;14.40;1.00;;;;;;5015568;28;20247;-64
2021/07/23 02:08:55;;;;;;;11.90;8.13;;;14.30;1.00;;;;;;5015515;28;20230;-65
2021/07/23 02:11:22;;;;;;;13.03;8.17;;;14.30;1.00;;;;;;5015167;28;20681;-65
2021/07/23 02:13:48;;;;;;;10.53;8.50;;;14.30;1.00;;;;;;5015055;28;20710;-65
2021/07/23 02:16:16;;;;;;;13.33;8.10;;;14.20;1.00;;;;;;5015164;28;20222;-63
2021/07/23 02:18:43;;;;;;;11.53;7.77;;;14.20;1.00;;;;;;5015024;28;20238;-65
2021/07/23 02:21:10;;;;;;;15.00;8.03;;;14.20;1.00;;;;;;5015194;28;20214;-65
2021/07/23 02:23:36;;;;;;;9.93;8.00;;;14.10;1.00;;;;;;5015073;28;20556;-65
2021/07/23 02:26:03;;;;;;;12.80;8.43;;;14.10;1.00;;;;;;5015153;28;20210;-65
2021/07/23 02:28:30;;;;;;;13.13;9.37;;;14.10;1.00;;;;;;5015131;28;20289;-64
2021/07/23 02:30:56;;;;;;;12.57;9.10;;;14.00;1.00;;;;;;5015018;28;20256;-64
2021/07/23 02:33:24;;;;;;;14.47;8.77;;;14.00;6.40;;;;;;5015055;28;20280;-65
2021/07/23 02:35:51;;;;;;;13.73;9.17;;;14.00;33.90;;;;;;5015229;28;20207;-65
2021/07/23 02:38:18;;;;;;;10.50;8.43;;;13.90;92.20;;;;;;5014691;28;20373;-63
2021/07/23 02:40:44;;;;;;;12.73;9.53;;;13.80;99.90;;;;;;5014873;28;20210;-64
2021/07/23 02:43:11;;;;;;;12.93;8.17;;;13.80;99.90;;;;;;5014226;28;20203;-64
2021/07/23 02:45:37;;;;;;;11.50;9.17;;;13.70;1.00;;;;;;5014524;28;20209;-64
2021/07/23 02:48:04;;;;;;;13.57;9.23;;;13.60;99.90;;;;;;5014598;28;20248;-64
2021/07/23 02:50:32;;;;;;;13.47;8.80;;;13.70;99.90;;;;;;5014828;28;20632;-65
2021/07/23 02:52:59;;;;;;;12.50;8.73;;;13.70;99.90;;;;;;5014508;28;20246;-65
2021/07/23 02:55:26;;;;;;;10.90;8.93;;;13.70;99.90;;;;;;5014392;28;20220;-65
2021/07/23 02:57:52;;;;;;;14.27;9.10;;;13.70;99.90;;;;;;5014341;28;20313;-63
2021/07/23 03:00:19;;;;;;;11.67;9.33;;;13.60;1.00;;;;;;5014498;28;20629;-64
2021/07/23 03:02:46;;;;;;;12.13;9.47;;;13.60;1.00;;;;;;5014966;28;20212;-65
2021/07/23 03:05:12;;;;;;;12.47;9.27;;;13.60;1.00;;;;;;5014841;28;20737;-63
2021/07/23 03:07:40;;;;;;;13.37;8.67;;;13.60;1.00;;;;;;5014413;28;20279;-65
2021/07/23 03:10:08;;;;;;;16.33;8.90;;;13.60;1.00;;;;;;5014176;28;20235;-65
2021/07/23 03:12:35;;;;;;;13.10;9.03;;;13.50;1.00;;;;;;5014106;28;20267;-64
2021/07/23 03:15:01;;;;;;;13.73;9.43;;;13.50;1.00;;;;;;5013896;28;20271;-65
2021/07/23 03:17:28;;;;;;;13.63;9.23;;;13.50;1.00;;;;;;5014592;28;20208;-65
2021/07/23 03:19:55;;;;;;;14.60;9.30;;;13.50;1.00;;;;;;5014344;28;20215;-65
2021/07/23 03:22:21;;;;;;;14.07;9.93;;;13.50;1.00;;;;;;5014220;28;20257;-64
2021/07/23 03:24:49;;;;;;;14.63;9.93;;;13.50;1.00;;;;;;5013684;28;20205;-64
2021/07/23 03:27:16;;;;;;;15.20;9.53;;;13.40;75.20;;;;;;5013990;28;20210;-64
2021/07/23 03:29:42;;;;;;;10.60;9.17;;;13.40;99.90;;;;;;5013954;28;20229;-65
2021/07/23 03:32:09;;;;;;;11.53;8.47;;;13.40;99.90;;;;;;5014141;28;20608;-63
2021/07/23 03:34:36;;;;;;;12.93;10.17;;;13.30;99.90;;;;;;5013415;28;20710;-65
2021/07/23 03:37:03;;;;;;;12.20;9.63;;;13.30;99.90;;;;;;5013991;28;20269;-64
2021/07/23 03:39:29;;;;;;;15.60;10.67;;;13.30;99.90;;;;;;5013491;28;20230;-63
2021/07/23 03:41:58;;;;;;;14.30;10.13;;;13.30;99.90;;;;;;5013358;28;20207;-65
2021/07/23 03:44:24;;;;;;;16.03;10.40;;;13.30;99.90;;;;;;5013695;28;20210;-65
2021/07/23 03:46:51;;;;;;;12.70;9.37;;;13.30;99.90;;;;;;5013625;28;20217;-65
2021/07/23 03:49:17;;;;;;;12.73;10.23;;;13.20;1.00;;;;;;5013376;28;20234;-64
2021/07/23 03:51:44;;;;;;;16.10;10.80;;;13.20;1.00;;;;;;5013382;28;20267;-64
2021/07/23 03:54:11;;;;;;;15.63;10.93;;;13.20;1.00;;;;;;5013123;28;20301;-65
2021/07/23 03:56:37;;;;;;;15.07;10.60;;;13.20;1.00;;;;;;5012375;28;20205;-64
2021/07/23 03:59:05;;;;;;;13.23;10.30;;;13.20;39.90;;;;;;5013468;28;20308;-64
2021/07/23 04:01:32;;;;;;;16.30;11.67;;;13.20;99.90;;;;;;5013216;28;20209;-65
2021/07/23 04:03:59;;;;;;;14.77;11.30;;;13.10;99.90;;;;;;5013170;28;20207;-65
2021/07/23 04:06:27;;;;;;;13.77;11.67;;;13.10;99.90;;;;;;5013173;28;20223;-65
2021/07/23 04:08:54;;;;;;;17.87;11.93;;;13.10;99.90;;;;;;5012933;28;20731;-64
2021/07/23 04:11:26;;;;;;;17.77;10.97;;;13.10;99.90;;;;;;5013297;28;20215;-63
2021/07/23 04:13:53;;;;;;;19.00;11.30;;;13.10;1.00;;;;;;5012715;28;20726;-63
2021/07/23 04:16:21;;;;;;;15.77;11.70;;;13.20;1.00;;;;;;5011561;28;20210;-63
2021/07/23 04:18:47;;;;;;;17.50;11.97;;;13.20;1.00;;;;;;5012802;28;20234;-63
2021/07/23 04:21:14;;;;;;;16.47;11.07;;;13.20;97.00;;;;;;5026338;28;20772;-63
2021/07/23 04:23:40;;;;;;;16.97;11.07;;;13.30;99.90;;;;;;5032062;28;20260;-64
2021/07/23 04:26:08;;;;;;;13.63;10.93;;;13.40;99.90;;;;;;5032627;28;20217;-64
2021/07/23 04:28:35;;;;;;;15.83;9.97;;;13.40;99.90;;;;;;5032376;28;20236;-63
2021/07/23 04:31:02;;;;;;;12.97;10.40;;;13.40;99.90;;;;;;5027365;28;20260;-65
2021/07/23 04:33:30;;;;;;;13.93;9.67;;;13.40;99.90;;;;;;5030528;28;20232;-65
2021/07/23 04:35:56;;;;;;;13.60;10.10;;;13.50;99.90;;;;;;5032655;28;20263;-64
2021/07/23 04:38:23;;;;;;;14.33;11.27;;;13.50;99.90;;;;;;5022195;28;20779;-66
2021/07/23 04:40:49;;;;;;;15.23;12.13;;;13.50;99.90;;;;;;5012554;28;20260;-66
2021/07/23 04:43:16;;;;;;;15.87;12.20;;;13.50;99.90;;;;;;5012613;28;20217;-66
2021/07/23 04:45:42;;;;;;;17.27;13.10;;;13.50;99.90;;;;;;5012269;28;20619;-66
2021/07/23 04:48:09;;;;;;;18.67;12.67;;;13.40;99.90;;;;;;5012341;28;20243;-66
2021/07/23 04:50:37;;;;;;;19.47;13.03;;;13.40;99.90;;;;;;5012087;28;20694;-66
2021/07/23 04:53:04;;;;;;;18.57;13.33;;;13.40;5.90;;;;;;5012560;28;20207;-66
2021/07/23 04:55:31;;;;;;;20.63;13.00;;;13.50;96.20;;;;;;5012218;28;20290;-66
2021/07/23 04:57:57;;;;;;;17.60;12.80;;;13.50;61.10;;;;;;5012395;28;20291;-66
2021/07/23 05:00:24;;;;;;;20.93;12.93;;;13.50;1.00;;;;;;5012439;28;20208;-66
2021/07/23 05:02:53;;;;;;;18.70;13.10;;;13.50;1.00;;;;;;5012313;28;20215;-66
2021/07/23 05:05:22;;;;;;;23.33;13.77;;;13.60;1.00;;;;;;5011660;28;20233;-66
2021/07/23 05:07:50;;;;;;;21.73;13.37;;;13.60;1.00;;;;;;5011759;28;20771;-66
2021/07/23 05:10:17;;;;;;;22.67;13.40;;;13.60;25.00;;;;;;5012389;28;20206;-66
2021/07/23 05:12:45;;;;;;;23.77;13.33;;;13.70;1.00;;;;;;5022496;28;20207;-66
2021/07/23 05:15:12;;;;;;;18.60;12.77;;;13.80;1.00;;;;;;5031721;28;20232;-64
2021/07/23 05:17:40;;;;;;;21.60;13.97;;;13.90;99.90;;;;;;5014606;28;20209;-63
2021/07/23 05:20:08;;;;;;;20.20;12.30;;;14.00;99.90;;;;;;5026936;28;20211;-63
2021/07/23 05:22:37;;;;;;;20.13;13.73;;;13.90;99.90;;;;;;5031495;28;20204;-63
2021/07/23 05:25:06;;;;;;;23.73;13.40;;;13.90;99.90;;;;;;5031457;28;20208;-64
2021/07/23 05:27:32;;;;;;;23.57;13.20;;;14.00;99.90;;;;;;5031124;28;20817;-64
2021/07/23 05:29:59;;;;;;;18.70;12.77;;;14.10;1.00;;;;;;5031145;28;20266;-63
2021/07/23 05:32:26;;;;;;;22.63;13.93;;;14.10;1.00;;;;;;5031116;28;20708;-63
2021/07/23 05:34:53;;;;;;;24.00;13.23;;;14.20;1.00;;;;;;5031064;28;20225;-63
2021/07/23 05:37:19;;;;;;;20.80;13.70;;;14.20;1.00;;;;;;5031374;28;20257;-64
2021/07/23 05:39:46;;;;;;;21.40;13.77;;;14.30;99.90;;;;;;5030831;28;20278;-64
2021/07/23 05:42:14;;;;;;;21.30;13.23;;;14.30;99.90;;;;;;5031425;28;20213;-65
2021/07/23 05:44:41;;;;;;;22.73;13.13;;;14.30;99.90;;;;;;5031099;28;20206;-65
2021/07/23 05:47:07;;;;;;;24.40;16.77;;;14.40;99.90;;;;;;5032329;28;20260;-64
2021/07/23 05:49:34;;;;;;;23.07;14.43;;;14.60;99.90;;;;;;5032538;28;20278;-64
2021/07/23 05:52:00;;;;;;;18.77;12.63;;;14.60;99.90;;;;;;5032352;28;20208;-63
2021/07/23 05:54:27;;;;;;;20.60;12.37;;;14.70;1.00;;;;;;5035581;28;20225;-64
2021/07/23 05:56:54;;;;;;;23.17;13.43;;;14.70;99.90;;;;;;5035894;28;20255;-66
2021/07/23 05:59:22;;;;;;;20.93;14.23;;;14.70;99.90;;;;;;5034726;28;20280;-64
2021/07/23 06:01:48;;;;;;;21.20;12.97;;;14.70;99.90;;;;;;5031746;28;20213;-63
2021/07/23 06:04:15;;;;;;;19.70;12.40;;;14.70;99.90;;;;;;5030900;28;20252;-65
2021/07/23 06:06:42;;;;;;;20.70;12.73;;;14.80;99.90;;;;;;5031000;28;20260;-62
2021/07/23 06:09:08;;;;;;;18.47;12.87;;;14.90;1.00;;;;;;5030546;28;20738;-61
2021/07/23 06:11:38;;;;;;;21.80;13.20;;;14.80;99.90;;;;;;5030854;28;20205;-62
2021/07/23 06:14:05;;;;;;;23.53;13.20;;;14.90;99.90;;;;;;5030792;28;20272;-63
2021/07/23 06:16:33;;;;;;;14.93;10.83;;;15.00;99.90;;;;;;5031255;28;20575;-63
2021/07/23 06:19:01;;;;;;;17.67;12.03;;;15.00;1.00;;;;;;5032361;28;20233;-63
2021/07/23 06:21:27;;;;;;;20.63;12.93;;;15.10;1.00;;;;;;5034318;28;20202;-64
2021/07/23 06:23:54;;;;;;;20.73;12.27;;;15.30;1.00;;;;;;5034412;28;20209;-64
2021/07/23 06:26:21;;;;;;;16.27;11.50;;;15.40;1.00;;;;;;5034274;28;20209;-65
2021/07/23 06:28:48;;;;;;;17.97;11.60;;;15.50;99.90;;;;;;5033815;28;20280;-65
2021/07/23 06:31:15;;;;;;;16.83;11.00;;;15.60;99.90;;;;;;5034517;28;20596;-63
2021/07/23 06:33:43;;;;;;;16.87;11.27;;;15.70;1.00;;;;;;5034116;28;20264;-64
2021/07/23 06:36:09;;;;;;;21.47;11.53;;;15.70;1.00;;;;;;5033950;28;20210;-63
2021/07/23 06:38:36;;;;;;;18.60;12.07;;;15.80;1.00;;;;;;5033789;28;20259;-61
2021/07/23 06:41:05;;;;;;;20.80;11.80;;;15.70;1.00;;;;;;5033687;28;20210;-62
2021/07/23 06:43:32;;;;;;;15.33;11.20;;;15.90;1.00;;;;;;5031961;28;20671;-61
2021/07/23 06:45:59;;;;;;;16.50;10.57;;;16.00;99.90;;;;;;5034406;28;20613;-64
2021/07/23 06:48:26;;;;;;;18.67;10.83;;;16.00;1.00;;;;;;5032697;28;20238;-63
2021/07/23 06:50:54;;;;;;;14.63;10.87;;;16.20;99.90;;;;;;5033624;28;20236;-63
2021/07/23 06:53:20;;;;;;;15.27;11.10;;;16.30;99.90;;;;;;5032257;28;20272;-63
2021/07/23 06:55:47;;;;;;;18.93;10.83;;;16.40;99.90;;;;;;5013192;28;20230;-62
2021/07/23 06:58:14;;;;;;;13.27;9.37;;;16.40;99.90;;;;;;5013884;28;20234;-62
2021/07/23 07:00:41;;;;;;;13.73;10.30;;;16.60;99.90;;;;;;5013808;28;20215;-63
2021/07/23 07:03:07;;;;;;;21.33;10.53;;;16.80;99.90;;;;;;5014026;28;20215;-63
2021/07/23 07:05:34;;;;;;;14.23;10.97;;;16.90;25.50;;;;;;5013780;28;20269;-64
2021/07/23 07:08:03;;;;;;;18.33;10.00;;;17.00;32.90;;;;;;5013691;28;20648;-62
2021/07/23 07:10:30;;;;;;;18.13;10.80;;;16.80;19.60;;;;;;5013380;28;20268;-62
2021/07/23 07:12:57;;;;;;;14.93;9.33;;;16.70;99.90;;;;;;5013904;28;20210;-61
2021/07/23 07:15:24;;;;;;;18.67;10.83;;;16.70;92.40;;;;;;5013549;28;20227;-63
2021/07/23 07:17:55;;;;;;;17.53;11.13;;;16.80;8.60;;;;;;5013721;28;20315;-63
2021/07/23 07:20:22;;;;;;;14.10;10.67;;;16.90;99.90;;;;;;5013286;28;20272;-64
2021/07/23 07:22:49;;;;;;;18.07;10.43;;;17.00;16.40;;;;;;5013443;28;20215;-63
2021/07/23 07:25:17;;;;;;;19.13;10.53;;;17.10;99.90;;;;;;5013513;28;20207;-65
2021/07/23 07:27:43;;;;;;;19.37;10.50;;;17.30;1.00;;;;;;5013548;28;20231;-63
2021/07/23 07:30:10;;;;;;;16.33;9.03;;;17.30;1.00;;;;;;5013061;28;20215;-63
2021/07/23 07:32:37;;;;;;;13.47;9.43;;;17.30;1.00;;;;;;5013537;28;20269;-63
2021/07/23 07:35:04;;;;;;;16.63;10.23;;;17.40;1.00;;;;;;5012947;28;20250;-62
2021/07/23 07:37:31;;;;;;;14.97;9.53;;;17.50;1.00;;;;;;5013112;28;20207;-63
2021/07/23 07:39:58;;;;;;;14.87;9.67;;;17.70;1.00;;;;;;5013205;28;20211;-64
2021/07/23 07:42:26;;;;;;;17.50;8.97;;;17.90;1.00;;;;;;5013258;28;20202;-63
2021/07/23 07:44:53;;;;;;;14.17;9.33;;;18.10;1.00;;;;;;5013165;28;20202;-65
2021/07/23 07:47:19;;;;;;;14.30;9.57;;;18.20;1.00;;;;;;5013165;28;20203;-65
2021/07/23 07:49:46;;;;;;;16.00;9.47;;;18.30;1.00;;;;;;5012539;28;20261;-65
2021/07/23 07:52:13;;;;;;;14.43;9.37;;;18.20;1.00;;;;;;5012936;28;20618;-65
2021/07/23 07:54:39;;;;;;;15.60;9.70;;;18.20;99.90;;;;;;5013003;28;20230;-65
2021/07/23 07:57:07;;;;;;;16.27;10.40;;;18.20;99.90;;;;;;5012251;28;20676;-65
2021/07/23 07:59:35;;;;;;;15.27;9.13;;;18.50;99.90;;;;;;5012405;28;20237;-65
2021/07/23 08:02:02;;;;;;;15.03;8.80;;;18.80;99.90;;;;;;5017583;28;20694;-62
2021/07/23 08:04:29;;;;;;;13.57;8.80;;;19.00;99.90;;;;;;5031967;28;20203;-63
2021/07/23 08:06:56;;;;;;;13.67;9.10;;;19.20;99.90;;;;;;5032840;28;20210;-65
2021/07/23 08:09:22;;;;;;;15.67;9.80;;;19.30;99.90;;;;;;5033231;28;20233;-66
2021/07/23 08:11:49;;;;;;;14.00;9.33;;;19.50;99.90;;;;;;5033249;28;20203;-67
2021/07/23 08:14:16;;;;;;;12.70;8.57;;;19.70;99.90;;;;;;5032334;28;20214;-67
2021/07/23 08:16:44;;;;;;;12.77;9.03;;;19.70;99.90;;;;;;5032354;28;20210;-67
2021/07/23 08:19:11;;;;;;;13.93;8.53;;;19.70;99.90;;;;;;5031527;28;20226;-67
2021/07/23 08:21:37;;;;;;;11.30;8.03;;;19.70;99.90;;;;;;5032202;28;20210;-68
2021/07/23 08:24:05;;;;;;;14.63;8.80;;;19.70;99.90;;;;;;5032617;28;20229;-65
2021/07/23 08:26:32;;;;;;;13.97;8.17;;;19.70;99.90;;;;;;5014143;28;20199;-64
2021/07/23 08:28:58;;;;;;;16.63;8.47;;;19.50;99.90;;;;;;5013357;28;20230;-66
2021/07/23 08:31:27;;;;;;;12.30;7.57;;;19.40;99.90;;;;;;5012924;28;20255;-65
2021/07/23 08:33:55;;;;;;;14.27;8.50;;;19.60;99.90;;;;;;5011978;28;20222;-65
2021/07/23 08:36:22;;;;;;;12.67;7.63;;;19.80;99.90;;;;;;5012321;28;20227;-64
2021/07/23 08:38:48;;;;;;;12.50;7.50;;;19.60;99.90;;;;;;5011481;28;20230;-65
2021/07/23 08:41:15;;;;;;;9.87;7.23;;;19.40;99.90;;;;;;5011379;28;20270;-65
2021/07/23 08:43:41;;;;;;;12.30;7.43;;;19.50;99.90;;;;;;5012032;28;20207;-64
2021/07/23 08:46:09;;;;;;;11.70;6.93;;;19.40;99.90;;;;;;5011881;28;20207;-65
2021/07/23 08:48:35;;;;;;;10.33;6.43;;;19.60;99.90;;;;;;5011513;28;20238;-65
2021/07/23 08:51:03;;;;;;;10.37;6.70;;;19.70;99.90;;;;;;5012228;28;20269;-65
2021/07/23 08:53:30;;;;;;;13.23;7.67;;;19.80;99.90;;;;;;5011811;28;20210;-64
2021/07/23 08:55:57;;;;;;;10.80;7.60;;;19.90;99.90;;;;;;5011993;28;20254;-65
2021/07/23 08:58:23;;;;;;;10.27;7.07;;;19.80;99.90;;;;;;5011783;28;20234;-65
2021/07/23 09:00:56;;;;;;;8.20;6.20;;;20.00;99.90;;;;;;5031419;28;20210;-65
2021/07/23 09:03:26;;;;;;;9.37;6.97;;;19.90;99.90;;;;;;5031728;28;20206;-65
2021/07/23 09:05:53;;;;;;;11.03;6.33;;;19.80;99.90;;;;;;5031717;28;20260;-63
2021/07/23 09:08:22;;;;;;;12.60;7.37;;;19.70;99.90;;;;;;5031514;28;20288;-63
2021/07/23 09:11:04;;;;;;;10.87;7.17;;;19.80;99.90;;;;;;5031332;28;20586;-63
2021/07/23 09:13:30;;;;;;;8.60;5.77;;;20.10;99.90;;;;;;5031275;28;20737;-63
2021/07/23 09:15:58;;;;;;;10.77;6.70;;;19.90;99.90;;;;;;5031372;28;20356;-63
2021/07/23 09:18:28;;;;;;;12.67;8.37;;;20.00;99.90;;;;;;5031425;28;20241;-65
2021/07/23 09:20:56;;;;;;;9.77;6.70;;;19.80;99.90;;;;;;5031443;28;20248;-65
2021/07/23 09:23:29;;;;;;;10.20;7.13;;;19.90;99.90;;;;;;5031414;28;20202;-65
2021/07/23 09:25:56;;;;;;;12.07;6.97;;;20.10;99.90;;;;;;5031532;28;20202;-65
2021/07/23 09:28:26;;;;;;;11.00;6.70;;;20.30;99.90;;;;;;5031344;28;20254;-65
2021/07/23 09:30:54;;;;;;;10.13;7.20;;;20.50;99.90;;;;;;5031385;28;20256;-63
2021/07/23 09:33:26;;;;;;;8.23;6.73;;;20.40;99.90;;;;;;5012791;28;20202;-63
2021/07/23 09:35:55;;;;;;;11.33;7.43;;;20.30;99.90;;;;;;5011600;28;20222;-65
2021/07/23 09:38:23;;;;;;;11.43;6.63;;;20.20;99.90;;;;;;5010996;28;20227;-63
2021/07/23 09:40:52;;;;;;;12.83;7.57;;;20.20;99.90;;;;;;5011438;28;20207;-64
2021/07/23 09:43:32;;;;;;;9.97;7.37;;;20.40;99.90;;;;;;5011518;28;20218;-64
2021/07/23 09:46:24;;;;;;;13.00;7.10;;;20.60;99.90;;;;;;5011693;28;20273;-65
2021/07/23 09:48:51;;;;;;;16.00;8.53;;;20.60;99.90;;;;;;5011196;28;20273;-67
2021/07/23 09:51:19;;;;;;;13.73;8.57;;;20.70;99.90;;;;;;5012048;28;20229;-66
2021/07/23 09:53:46;;;;;;;14.07;8.53;;;20.80;99.90;;;;;;5012122;28;20203;-64
2021/07/23 09:56:13;;;;;;;12.57;8.17;;;20.80;99.90;;;;;;5015791;28;20226;-64
2021/07/23 09:58:42;;;;;;;9.43;6.67;;;20.90;99.90;;;;;;5016068;28;20231;-63
2021/07/23 10:01:11;;;;;;;13.37;8.57;;;20.90;99.90;;;;;;5015562;28;20676;-65
2021/07/23 10:03:42;;;;;;;16.23;9.20;;;20.90;99.90;;;;;;5015121;28;20214;-65
2021/07/23 10:06:11;;;;;;;14.10;8.53;;;20.90;99.90;;;;;;5014755;28;20195;-65
2021/07/23 10:08:41;;;;;;;11.30;7.60;;;21.00;99.90;;;;;;5015062;28;20226;-65
2021/07/23 10:11:10;;;;;;;12.53;7.73;;;21.20;99.90;;;;;;5014771;28;20207;-65
2021/07/23 10:13:40;;;;;;;13.37;7.87;;;21.50;99.90;;;;;;5014662;28;20676;-66
2021/07/23 10:16:09;;;;;;;12.07;8.30;;;21.60;99.90;;;;;;5016145;28;20227;-63
2021/07/23 10:18:36;;;;;;;15.40;9.50;;;21.80;99.90;;;;;;5014662;28;20274;-64
2021/07/23 10:21:03;;;;;;;13.50;8.20;;;21.80;99.90;;;;;;5014903;28;20210;-65
2021/07/23 10:23:31;;;;;;;18.27;9.50;;;21.90;99.90;;;;;;5014868;28;20207;-65
2021/07/23 10:25:59;;;;;;;13.03;9.27;;;21.60;99.90;;;;;;5015028;28;20242;-64
2021/07/23 10:28:57;;;;;;;11.73;8.63;;;21.60;99.90;;;;;;5014305;28;20239;-65
2021/07/23 10:31:40;;;;;;;11.23;8.33;;;21.50;99.90;;;;;;5014624;28;20207;-61
2021/07/23 10:34:09;;;;;;;14.07;8.73;;;21.80;99.90;;;;;;5014465;28;20211;-62
2021/07/23 10:36:40;;;;;;;16.13;9.00;;;21.90;99.90;;;;;;5014156;28;20318;-63
2021/07/23 10:39:10;;;;;;;15.93;10.90;;;22.00;99.90;;;;;;5014222;28;20227;-63
2021/07/23 10:41:38;;;;;;;15.77;11.00;;;21.90;99.90;;;;;;5014547;28;20218;-63
2021/07/23 10:44:10;;;;;;;14.27;11.00;;;21.40;99.90;;;;;;5014202;28;20207;-62
2021/07/23 10:46:56;;;;;;;15.37;10.43;;;21.50;99.90;;;;;;5014409;28;20235;-63
2021/07/23 10:49:47;;;;;;;12.73;9.97;;;21.60;99.90;;;;;;5013057;28;20235;-63
2021/07/23 10:52:27;;;;;;;16.47;9.33;;;22.00;99.90;;;;;;5014525;28;20217;-63
2021/07/23 10:55:09;;;;;;;16.50;10.50;;;22.30;99.90;;;;;;5014044;28;20294;-62
2021/07/23 10:57:36;;;;;;;17.67;10.40;;;22.30;99.90;;;;;;5024015;28;20207;-64
2021/07/23 11:00:05;;;;;;;17.73;11.00;;;22.30;99.90;;;;;;5033539;28;20232;-63
2021/07/23 11:02:46;;;;;;;18.57;10.33;;;22.30;99.90;;;;;;5033907;28;20214;-63
2021/07/23 11:05:15;;;;;;;16.63;11.53;;;22.60;99.90;;;;;;5032949;28;20213;-64
2021/07/23 11:07:43;;;;;;;14.67;10.73;;;22.70;99.90;;;;;;5033566;28;20234;-65
2021/07/23 11:10:13;;;;;;;18.60;11.77;;;22.60;99.90;;;;;;5033107;28;20221;-65
2021/07/23 11:12:41;;;;;;;15.03;10.53;;;22.70;99.90;;;;;;5033697;28;20213;-64
2021/07/23 11:15:12;;;;;;;15.63;10.03;;;22.70;99.90;;;;;;5032881;28;20675;-64
2021/07/23 11:17:56;;;;;;;16.07;9.70;;;22.90;99.90;;;;;;5033647;28;20210;-65
2021/07/23 11:20:33;;;;;;;18.40;11.87;;;23.20;99.90;;;;;;5032986;28;20210;-65
2021/07/23 11:23:00;;;;;;;18.07;11.00;;;22.90;99.90;;;;;;5033514;28;20202;-65
2021/07/23 11:25:30;;;;;;;12.90;9.67;;;23.00;99.90;;;;;;5033288;28;20446;-64
2021/07/23 11:28:01;;;;;;;15.87;11.43;;;23.00;99.90;;;;;;5033199;28;20714;-64
2021/07/23 11:30:32;;;;;;;17.13;11.50;;;22.90;99.90;;;;;;5033059;28;20260;-64
2021/07/23 11:33:00;;;;;;;18.87;10.90;;;22.90;99.90;;;;;;5033481;28;20210;-64
2021/07/23 11:35:36;;;;;;;16.17;11.47;;;22.90;99.90;;;;;;5033042;28;20206;-63
2021/07/23 11:38:11;;;;;;;17.43;11.63;;;22.90;99.90;;;;;;5032989;28;20226;-62
2021/07/23 11:40:38;;;;;;;20.50;12.20;;;22.90;99.90;;;;;;5032752;28;20210;-63
2021/07/23 11:43:05;;;;;;;17.57;10.73;;;22.70;99.90;;;;;;5032741;28;20211;-63
2021/07/23 11:45:35;;;;;;;18.13;11.73;;;22.70;99.90;;;;;;5032579;28;20695;-63
2021/07/23 11:48:09;;;;;;;13.53;9.83;;;22.50;99.90;;;;;;5032783;28;20296;-64
2021/07/23 11:50:36;;;;;;;18.23;10.17;;;22.70;99.90;;;;;;5032840;28;20237;-64
2021/07/23 11:53:05;;;;;;;17.73;11.03;;;23.00;99.90;;;;;;5032669;28;20214;-64
2021/07/23 11:55:40;;;;;;;14.73;10.67;;;23.10;99.90;;;;;;5032144;28;20292;-65
2021/07/23 11:58:07;;;;;;;15.77;10.50;;;22.90;99.90;;;;;;5032768;28;20232;-64
2021/07/23 12:00:35;;;;;;;13.77;10.33;;;22.80;99.90;;;;;;5032513;28;20264;-63
2021/07/23 12:03:17;;;;;;;14.67;10.70;;;23.10;99.90;;;;;;5032827;28;20202;-64
2021/07/23 12:05:43;;;;;;;14.43;10.37;;;23.30;99.90;;;;;;5032472;28;20295;-65
2021/07/23 12:08:10;;;;;;;14.63;10.47;;;23.40;99.90;;;;;;5032210;28;20726;-65
2021/07/23 12:10:37;;;;;;;12.97;9.37;;;23.50;99.90;;;;;;5032084;28;20206;-63
2021/07/23 12:13:05;;;;;;;14.07;9.00;;;23.70;99.90;;;;;;5032731;28;20237;-64
2021/07/23 12:15:42;;;;;;;17.40;10.50;;;23.80;99.90;;;;;;5031735;28;20213;-63
2021/07/23 12:18:09;;;;;;;15.53;9.50;;;23.80;99.90;;;;;;5032181;28;20221;-64
2021/07/23 12:20:36;;;;;;;12.70;8.70;;;24.00;99.90;;;;;;5032025;28;20211;-65
2021/07/23 12:23:04;;;;;;;12.20;8.87;;;24.10;99.90;;;;;;5032521;28;20206;-65
2021/07/23 12:25:37;;;;;;;16.27;9.57;;;24.00;99.90;;;;;;5032334;28;20210;-64
2021/07/23 12:28:12;;;;;;;11.50;7.93;;;24.00;99.90;;;;;;5032357;28;20288;-65
2021/07/23 12:30:42;;;;;;;11.63;8.47;;;23.90;99.90;;;;;;5032195;28;20206;-64
2021/07/23 12:33:13;;;;;;;14.23;9.70;;;23.80;99.90;;;;;;5031875;28;20217;-64
2021/07/23 12:35:40;;;;;;;14.50;9.70;;;23.80;99.90;;;;;;5032228;28;20210;-64
2021/07/23 12:38:08;;;;;;;12.73;8.43;;;24.00;99.90;;;;;;5031963;28;20231;-64
2021/07/23 12:40:49;;;;;;;11.63;9.97;;;23.90;99.90;;;;;;5031956;28;20867;-64